Flight Track Log - Related Links

Times and Time Zones

All times are in EDT time to prevent confusion due to time zone crossing. See the C-FTOH flight status page for this flight to view local times or setup timezone preferences in your user account.


Time Position Orientation Groundspeed Altitude Reporting Facility
EDT Latitude Longitude Course Direction KTS MPH feet Rate Location/Type
Thu 03:50:41 PM 42.2728 -82.9739 175° South 138 159 1,700  Level Cleveland Center
Thu 03:51:54 PM 42.2103 -82.9661 175° South 223 257 4,300 2,531 Climbing Cleveland Center
Thu 03:52:49 PM 42.1461 -82.9467 167° South 286 329 7,100 3,097 Climbing Cleveland Center
Thu 03:53:27 PM 42.1061 -82.9622 196° South 256 295 9,100 3,103 Climbing Cleveland Center
Thu 03:58:39 PM 41.7100 -83.2870 196° South 374 430 25,200 3,034 Climbing FlightAware ADS-B
Thu 03:59:19 PM 41.6440 -83.3220 202° Southwest 386 444 26,900 2,400 Climbing FlightAware ADS-B
Thu 03:59:59 PM 41.5760 -83.3590 202° Southwest 398 458 28,400 2,118 Climbing FlightAware ADS-B
Thu 04:00:44 PM 41.4960 -83.4030 202° Southwest 410 472 29,900 1,976 Climbing FlightAware ADS-B
Thu 04:01:24 PM 41.4250 -83.4410 202° Southwest 417 480 31,200 2,100 Climbing FlightAware ADS-B
Thu 04:02:04 PM 41.3530 -83.4800 202° Southwest 417 480 32,700 2,118 Climbing FlightAware ADS-B
Thu 04:02:49 PM 41.2720 -83.5230 202° Southwest 418 481 34,200 1,694 Climbing FlightAware ADS-B
Thu 04:03:29 PM 41.2010 -83.5620 202° Southwest 423 487 35,100 1,412 Climbing FlightAware ADS-B
Thu 04:04:14 PM 41.1200 -83.6050 202° Southwest 423 487 36,200 1,553 Climbing FlightAware ADS-B
Thu 04:04:54 PM 41.0460 -83.6440 202° Southwest 423 487 37,300 1,875 Climbing FlightAware ADS-B
Thu 04:05:34 PM 40.9760 -83.6810 202° Southwest 410 472 38,700 1,275 Climbing FlightAware ADS-B
Thu 04:06:14 PM 40.9060 -83.7190 202° Southwest 412 474 39,000 212 Climbing FlightAware ADS-B
Thu 04:06:59 PM 40.8200 -83.7510 196° South 432 497 39,000  Level FlightAware ADS-B
Thu 04:07:39 PM 40.7410 -83.7550 182° South 439 505 39,000  Level FlightAware ADS-B
Thu 04:08:24 PM 40.6500 -83.7580 181° South 433 498 39,000  Level FlightAware ADS-B
Thu 04:09:04 PM 40.5700 -83.7600 181° South 427 491 39,000  Level FlightAware ADS-B
Thu 04:09:49 PM 40.4790 -83.7630 181° South 428 493 39,000  Level FlightAware ADS-B
Thu 04:10:29 PM 40.4010 -83.7650 181° South 428 493 39,000  Level FlightAware ADS-B
Thu 04:11:14 PM 40.3120 -83.7680 181° South 429 494 39,000  Level FlightAware ADS-B
Thu 04:11:54 PM 40.2350 -83.7700 181° South 429 494 39,000  Level FlightAware ADS-B
Thu 04:12:39 PM 40.1420 -83.7730 181° South 430 495 39,000  Level FlightAware ADS-B
Thu 04:13:19 PM 40.0630 -83.7750 181° South 430 495 39,000  Level FlightAware ADS-B
Thu 04:13:59 PM 39.9830 -83.7780 182° South 429 494 39,000  Level FlightAware ADS-B
Thu 04:14:44 PM 39.8950 -83.7810 181° South 429 494 39,000  Level FlightAware ADS-B
Thu 04:15:24 PM 39.8150 -83.7830 181° South 428 493 39,000  Level FlightAware ADS-B
Thu 04:16:04 PM 39.7390 -83.7850 181° South 429 494 39,000  Level FlightAware ADS-B
Thu 04:16:44 PM 39.6650 -83.7870 181° South 429 494 39,000  Level FlightAware ADS-B
Thu 04:17:29 PM 39.5700 -83.7910 182° South 429 494 39,000  Level FlightAware ADS-B
Thu 04:18:14 PM 39.4800 -83.7930 181° South 429 494 39,000  Level FlightAware ADS-B
Thu 04:18:54 PM 39.3990 -83.7950 181° South 433 498 39,000  Level FlightAware ADS-B
Thu 04:19:49 PM 39.2960 -83.7980 181° South 434 499 39,000  Level FlightAware ADS-B
Thu 04:20:29 PM 39.2280 -83.8000 181° South 434 499 39,000  Level FlightAware ADS-B
Thu 04:21:09 PM 39.1600 -83.8010 181° South 434 499 39,000  Level FlightAware ADS-B
Thu 04:21:59 PM 39.0740 -83.8030 181° South 434 499 39,000  Level FlightAware ADS-B
Thu 04:22:34 PM 38.9620 -83.8090 182° South 431 496 39,000  Level FlightAware ADS-B
Thu 04:23:19 PM 38.8680 -83.8110 181° South 429 494 39,000  Level FlightAware ADS-B
Thu 04:24:04 PM 38.7810 -83.8140 182° South 427 491 39,000  Level FlightAware ADS-B
Thu 04:24:39 PM 38.7160 -83.8150 181° South 428 493 39,000  Level FlightAware ADS-B
Thu 04:25:19 PM 38.6490 -83.8170 181° South 428 493 39,000  Level FlightAware ADS-B
Thu 04:26:09 PM 38.5650 -83.8190 181° South 428 493 39,000  Level FlightAware ADS-B
Thu 04:26:49 PM 38.4970 -83.8200 181° South 428 493 39,000  Level FlightAware ADS-B
Thu 04:27:34 PM 38.3660 -83.8260 182° South 426 490 39,000  Level FlightAware ADS-B
Thu 04:28:09 PM 38.2960 -83.8280 181° South 425 489 39,000  Level FlightAware ADS-B
Thu 04:28:59 PM 38.1980 -83.8310 181° South 423 487 39,000  Level FlightAware ADS-B
Thu 04:29:39 PM 38.1210 -83.8330 181° South 422 486 39,000  Level FlightAware ADS-B
Thu 04:30:24 PM 38.0450 -83.8350 181° South 422 486 39,000  Level FlightAware ADS-B
Thu 04:31:04 PM 37.9520 -83.8380 181° South 421 484 39,000  Level FlightAware ADS-B
Thu 04:31:28 PM 37.9040 -83.8391 181° South 422 486 39,000  Level FlightAware ADS-B
Thu 04:32:04 PM 37.8340 -83.8411 181° South 423 487 39,000  Level FlightAware ADS-B
Thu 04:33:09 PM 37.7150 -83.8450 181° South 423 487 39,000  Level FlightAware ADS-B
Thu 04:33:14 PM 37.6965 -83.8450 180° South 423 487 39,000  Level FlightAware ADS-B
Thu 04:33:49 PM 37.6420 -83.8460 181° South 423 487 39,000  Level FlightAware ADS-B
Thu 04:34:29 PM 37.5750 -83.8480 181° South 423 487 39,000  Level FlightAware ADS-B
Thu 04:35:14 PM 37.4650 -83.8520 182° South 424 488 39,000  Level FlightAware ADS-B
Thu 04:35:36 PM 37.4171 -83.8530 181° South 425 489 39,000  Level FlightAware ADS-B
Thu 04:36:07 PM 37.3575 -83.8546 181° South 424 488 39,000  Level FlightAware ADS-B
Thu 04:36:59 PM 37.2551 -83.8576 181° South 423 487 39,000  Level FlightAware ADS-B
Thu 04:37:29 PM 37.1957 -83.8593 181° South 424 488 39,000  Level FlightAware ADS-B
Thu 04:38:23 PM 37.0902 -83.8622 181° South 425 489 39,000  Level FlightAware ADS-B
Thu 04:38:53 PM 37.0302 -83.8637 181° South 425 489 39,000  Level FlightAware ADS-B
Thu 04:39:44 PM 36.9306 -83.8665 181° South 424 488 39,000  Level FlightAware ADS-B
Thu 04:40:15 PM 36.8699 -83.8683 181° South 424 488 39,000  Level FlightAware ADS-B
Thu 04:40:47 PM 36.8064 -83.8701 181° South 424 488 39,000  Level FlightAware ADS-B
Thu 04:41:18 PM 36.7466 -83.8717 181° South 425 489 39,000  Level FlightAware ADS-B
Thu 04:41:49 PM 36.6853 -83.8733 181° South 424 488 39,000  Level FlightAware ADS-B
Thu 04:42:20 PM 36.6248 -83.8750 181° South 423 487 39,000  Level FlightAware ADS-B
Thu 04:42:50 PM 36.5659 -83.8766 181° South 421 484 39,000  Level FlightAware ADS-B
Thu 04:43:21 PM 36.5061 -83.8783 181° South 419 482 39,000  Level FlightAware ADS-B
Thu 04:43:51 PM 36.4476 -83.8799 181° South 419 482 39,000  Level FlightAware ADS-B
Thu 04:44:21 PM 36.3889 -83.8816 181° South 420 483 39,000  Level FlightAware ADS-B
Thu 04:44:57 PM 36.3192 -83.8835 181° South 421 484 39,000  Level FlightAware ADS-B
Thu 04:45:28 PM 36.2597 -83.8851 181° South 421 484 39,000  Level FlightAware ADS-B
Thu 04:45:58 PM 36.2002 -83.8867 181° South 420 483 39,000  Level FlightAware ADS-B
Thu 04:46:31 PM 36.1366 -83.8885 181° South 419 482 39,000  Level FlightAware ADS-B
Thu 04:47:06 PM 36.0696 -83.8904 181° South 420 483 39,000  Level FlightAware ADS-B
Thu 04:47:37 PM 36.0092 -83.8921 181° South 424 488 39,000  Level FlightAware ADS-B
Thu 04:48:11 PM 35.9410 -83.8934 181° South 426 490 39,000  Level FlightAware ADS-B
Thu 04:48:37 PM 35.8899 -83.8885 176° South 439 505 39,000  Level FlightAware ADS-B
Thu 04:48:51 PM 35.8617 -83.8819 169° South 447 514 39,000  Level FlightAware ADS-B
Thu 04:49:23 PM 35.7978 -83.8629 166° South 450 518 39,000  Level FlightAware ADS-B
Thu 04:49:53 PM 35.7355 -83.8443 166° South 450 518 39,000  Level FlightAware ADS-B
Thu 04:50:24 PM 35.6727 -83.8257 166° South 450 518 39,000  Level FlightAware ADS-B
Thu 04:50:55 PM 35.6113 -83.8073 166° South 452 520 39,000  Level FlightAware ADS-B
Thu 04:51:26 PM 35.5481 -83.7886 166° South 452 520 39,000  Level FlightAware ADS-B
Thu 04:51:57 PM 35.4850 -83.7701 167° South 450 518 39,000  Level FlightAware ADS-B
Thu 04:52:32 PM 35.4141 -83.7492 166° South 451 519 39,000  Level FlightAware ADS-B
Thu 04:53:02 PM 35.3529 -83.7312 167° South 451 519 39,000  Level FlightAware ADS-B
Thu 04:53:35 PM 35.2856 -83.7114 166° South 449 517 39,000  Level FlightAware ADS-B
Thu 04:54:24 PM 35.1970 -83.6850 166° South 449 517 39,000  Level FlightAware ADS-B
Thu 04:54:27 PM 35.1812 -83.6807 167° South 449 517 39,000  Level FlightAware ADS-B
Thu 04:54:57 PM 35.1197 -83.6627 167° South 449 517 39,000  Level FlightAware ADS-B
Thu 04:55:28 PM 35.0580 -83.6446 166° South 452 520 39,000  Level FlightAware ADS-B
Thu 04:56:11 PM 34.9694 -83.6188 167° South 453 521 39,000  Level FlightAware ADS-B
Thu 04:56:42 PM 34.9066 -83.6006 167° South 453 521 39,000  Level FlightAware ADS-B
Thu 04:57:14 PM 34.8419 -83.5818 167° South 454 522 39,000  Level FlightAware ADS-B
Thu 04:57:47 PM 34.7742 -83.5620 166° South 454 522 39,000  Level FlightAware ADS-B
Thu 04:58:18 PM 34.7099 -83.5433 167° South 453 521 39,000  Level FlightAware ADS-B
Thu 04:58:50 PM 34.6467 -83.5250 167° South 450 518 39,000  Level FlightAware ADS-B
Thu 04:59:20 PM 34.5847 -83.5071 167° South 449 517 39,000  Level FlightAware ADS-B
Thu 04:59:50 PM 34.5237 -83.4897 167° South 448 516 39,000  Level FlightAware ADS-B
Thu 05:00:21 PM 34.4626 -83.4722 167° South 447 514 39,000  Level FlightAware ADS-B
Thu 05:00:51 PM 34.4015 -83.4547 167° South 447 514 39,000  Level FlightAware ADS-B
Thu 05:01:22 PM 34.3393 -83.4367 167° South 448 516 39,000  Level FlightAware ADS-B
Thu 05:01:53 PM 34.2758 -83.4183 167° South 449 517 39,000  Level FlightAware ADS-B
Thu 05:02:27 PM 34.2083 -83.3991 167° South 449 517 39,000  Level FlightAware ADS-B
Thu 05:02:57 PM 34.1464 -83.3815 167° South 449 517 39,000  Level FlightAware ADS-B
Thu 05:03:30 PM 34.0813 -83.3629 167° South 449 517 39,000  Level FlightAware ADS-B
Thu 05:04:00 PM 34.0197 -83.3453 167° South 450 518 39,000  Level FlightAware ADS-B
Thu 05:04:31 PM 33.9572 -83.3274 167° South 451 519 39,000  Level FlightAware ADS-B
Thu 05:05:19 PM 33.8650 -83.2960 164° South 450 518 39,000 109 Level FlightAware ADS-B
Thu 05:05:26 PM 33.8452 -83.2890 164° South 456 525 39,100 400 Climbing FlightAware ADS-B
Thu 05:06:04 PM 33.7730 -83.2640 164° South 469 540 39,300 692 Climbing FlightAware ADS-B
Thu 05:06:44 PM 33.6880 -83.2340 164° South 471 542 40,000 494 Climbing FlightAware ADS-B
Thu 05:07:29 PM 33.5980 -83.2030 164° South 471 542 40,000  Level FlightAware ADS-B
Thu 05:08:09 PM 33.5130 -83.1740 164° South 469 540 40,000  Level FlightAware ADS-B
Thu 05:08:49 PM 33.4240 -83.1430 164° South 477 549 40,000  Level FlightAware ADS-B
Thu 05:09:34 PM 33.3220 -83.1080 164° South 478 550 40,000  Level FlightAware ADS-B
Thu 05:10:09 PM 33.2500 -83.0830 164° South 478 550 40,000  Level FlightAware ADS-B
Thu 05:10:54 PM 33.1550 -83.0510 164° South 479 551 40,000  Level FlightAware ADS-B
Thu 05:11:39 PM 33.0590 -83.0180 164° South 479 551 40,000  Level FlightAware ADS-B
Thu 05:12:34 PM 32.9530 -82.9820 164° South 479 551 40,000  Level FlightAware ADS-B
Thu 05:13:19 PM 32.8470 -82.9460 164° South 475 547 40,000  Level FlightAware ADS-B
Thu 05:13:49 PM 32.7810 -82.9240 164° South 474 545 40,000  Level FlightAware ADS-B
Thu 05:14:34 PM 32.6920 -82.8930 164° South 474 545 40,000  Level FlightAware ADS-B
Thu 05:15:59 PM 32.5210 -82.8360 164° South 474 545 40,000  Level FlightAware ADS-B
Thu 05:16:44 PM 32.4340 -82.8040 163° South 474 545 40,000  Level FlightAware ADS-B
Thu 05:17:24 PM 32.3620 -82.7780 163° South 474 545 40,000  Level FlightAware ADS-B
Thu 05:18:14 PM 32.2730 -82.7460 163° South 474 545 40,000  Level FlightAware ADS-B
Thu 05:18:54 PM 32.2020 -82.7200 163° South 474 545 40,000  Level FlightAware ADS-B
Thu 05:19:34 PM 32.1310 -82.6950 163° South 474 545 40,000  Level FlightAware ADS-B
Thu 05:20:14 PM 32.0590 -82.6690 163° South 474 545 40,000  Level FlightAware ADS-B
Thu 05:20:54 PM 31.9880 -82.6430 163° South 474 545 40,000  Level FlightAware ADS-B
Thu 05:21:44 PM 31.8990 -82.6110 163° South 474 545 40,000  Level FlightAware ADS-B
Thu 05:22:24 PM 31.8270 -82.5850 163° South 474 545 40,000  Level FlightAware ADS-B
Thu 05:23:04 PM 31.7560 -82.5600 163° South 474 545 40,000  Level FlightAware ADS-B
Thu 05:23:44 PM 31.6850 -82.5340 163° South 474 545 40,000  Level FlightAware ADS-B
Thu 05:24:24 PM 31.6140 -82.5090 163° South 474 545 40,000  Level FlightAware ADS-B
Thu 05:25:14 PM 31.5240 -82.4770 163° South 474 545 40,000  Level FlightAware ADS-B
Thu 05:25:54 PM 31.4530 -82.4510 163° South 474 545 40,000 -61 Level FlightAware ADS-B
Thu 05:26:52 PM 31.1639 -82.5258 163° South 444 511 39,900  Descending Jacksonville Center
Thu 05:27:52 PM 31.0428 -82.5336 183° South 439 505 40,000 50 Climbing Jacksonville Center
Thu 05:28:52 PM 30.9194 -82.5367 181° South 439 505 40,000 146 Level Jacksonville Center
Thu 05:34:44 PM 30.1770 -82.4390 181° South 481 554 41,000 153 Climbing FlightAware ADS-B
Thu 05:35:24 PM 30.0930 -82.4100 163° South 481 554 41,000  Level FlightAware ADS-B
Thu 05:36:09 PM 29.9940 -82.3770 164° South 480 552 41,000  Level FlightAware ADS-B
Thu 05:36:54 PM 29.8980 -82.3440 163° South 481 554 41,000  Level FlightAware ADS-B
Thu 05:37:34 PM 29.8130 -82.3150 164° South 482 555 41,000  Level FlightAware ADS-B
Thu 05:38:14 PM 29.7320 -82.2870 163° South 482 555 41,000  Level FlightAware ADS-B
Thu 05:38:59 PM 29.6280 -82.2630 169° South 474 545 41,000  Level FlightAware ADS-B
Thu 05:39:39 PM 29.5400 -82.2490 172° South 479 551 41,000  Level FlightAware ADS-B
Thu 05:40:24 PM 29.4450 -82.2350 173° South 480 552 41,000  Level FlightAware ADS-B
Thu 05:41:04 PM 29.3550 -82.2210 172° South 483 556 41,000  Level FlightAware ADS-B
Thu 05:41:49 PM 29.2540 -82.1960 168° South 488 562 41,000  Level FlightAware ADS-B
Thu 05:42:29 PM 29.1690 -82.1740 167° South 488 562 41,000  Level FlightAware ADS-B
Thu 05:43:09 PM 29.0770 -82.1500 167° South 486 559 41,000  Level FlightAware ADS-B
Thu 05:43:54 PM 28.9790 -82.1260 168° South 485 558 41,000  Level FlightAware ADS-B
Thu 05:44:34 PM 28.8920 -82.1040 168° South 485 558 41,000  Level FlightAware ADS-B
Thu 05:45:14 PM 28.8040 -82.0820 168° South 484 557 41,000  Level FlightAware ADS-B
Thu 05:45:59 PM 28.7100 -82.0580 167° South 484 557 41,000  Level FlightAware ADS-B
Thu 05:46:39 PM 28.6170 -82.0360 168° South 482 555 41,000  Level FlightAware ADS-B
Thu 05:47:24 PM 28.5220 -82.0120 167° South 480 552 41,000  Level FlightAware ADS-B
Thu 05:48:04 PM 28.4390 -81.9910 167° South 478 550 41,000  Level FlightAware ADS-B
Thu 05:48:44 PM 28.3470 -81.9690 168° South 475 547 41,000  Level FlightAware ADS-B
Thu 05:49:29 PM 28.2490 -81.9440 167° South 472 543 41,000  Level FlightAware ADS-B
Thu 05:50:09 PM 28.1640 -81.9230 168° South 468 539 41,000  Level FlightAware ADS-B
Thu 05:50:49 PM 28.0820 -81.9030 168° South 466 536 41,000  Level FlightAware ADS-B
Thu 05:51:34 PM 27.9900 -81.8800 168° South 465 535 41,000  Level FlightAware ADS-B
Thu 05:52:14 PM 27.9020 -81.8580 168° South 464 534 41,000  Level FlightAware ADS-B
Thu 05:52:59 PM 27.8040 -81.8340 168° South 466 536 41,000  Level FlightAware ADS-B
Thu 05:53:39 PM 27.7210 -81.8140 168° South 469 540 41,000  Level FlightAware ADS-B
Thu 05:54:19 PM 27.6350 -81.7930 168° South 470 541 41,000  Level FlightAware ADS-B
Thu 05:55:04 PM 27.5410 -81.7690 167° South 470 541 41,000  Level FlightAware ADS-B
Thu 05:55:44 PM 27.4580 -81.7490 168° South 472 543 41,000  Level FlightAware ADS-B
Thu 05:56:24 PM 27.3700 -81.7280 168° South 475 547 41,000  Level FlightAware ADS-B
Thu 05:57:04 PM 27.2850 -81.7070 168° South 476 548 41,000  Level FlightAware ADS-B
Thu 05:58:04 PM 27.1660 -81.6780 168° South 473 544 41,000  Level FlightAware ADS-B
Thu 05:58:44 PM 27.0770 -81.6570 168° South 462 532 41,000  Level FlightAware ADS-B
Thu 05:59:54 PM 26.9340 -81.6220 168° South 459 528 41,000  Level FlightAware ADS-B
Thu 06:00:39 PM 26.8300 -81.6010 170° South 452 520 41,000  Level FlightAware ADS-B
Thu 06:01:19 PM 26.7530 -81.5900 173° South 453 521 41,000  Level FlightAware ADS-B
Thu 06:02:04 PM 26.6470 -81.5760 173° South 455 524 41,000  Level FlightAware ADS-B
Thu 06:02:44 PM 26.5630 -81.5640 173° South 455 524 41,000  Level FlightAware ADS-B
Thu 06:03:29 PM 26.4650 -81.5510 173° South 456 525 41,000  Level FlightAware ADS-B
Thu 06:04:09 PM 26.3800 -81.5390 173° South 468 539 41,000  Level FlightAware ADS-B
Thu 06:04:49 PM 26.2940 -81.5270 173° South 470 541 41,000  Level FlightAware ADS-B
Thu 06:05:34 PM 26.1950 -81.5130 173° South 470 541 41,000  Level FlightAware ADS-B
Thu 06:06:14 PM 26.1080 -81.5010 173° South 471 542 41,000  Level FlightAware ADS-B
Thu 06:06:54 PM 26.0210 -81.4890 173° South 472 543 41,000  Level FlightAware ADS-B
Thu 06:08:14 PM 25.8550 -81.4670 173° South 466 536 41,000  Level FlightAware ADS-B
Thu 06:09:04 PM 25.7460 -81.4520 173° South 467 537 41,000  Level FlightAware ADS-B
Thu 06:09:44 PM 25.6590 -81.4400 173° South 466 536 41,000  Level FlightAware ADS-B
Thu 06:10:29 PM 25.5590 -81.4270 173° South 471 542 41,000  Level FlightAware ADS-B
Thu 06:11:09 PM 25.4730 -81.4150 173° South 471 542 41,000  Level FlightAware ADS-B
Thu 06:11:49 PM 25.3830 -81.4030 173° South 472 543 41,000  Level FlightAware ADS-B
Thu 06:12:34 PM 25.2850 -81.3890 173° South 472 543 41,000  Level FlightAware ADS-B
Thu 06:13:14 PM 25.2020 -81.3780 173° South 473 544 41,000  Level FlightAware ADS-B
Thu 06:13:54 PM 25.1090 -81.3650 173° South 466 536 41,000 -141 Level FlightAware ADS-B
Thu 06:14:39 PM 25.0120 -81.3520 173° South 467 537 40,800 -635 Descending FlightAware ADS-B
Thu 06:15:19 PM 24.9210 -81.3400 173° South 484 557 40,100 -918 Descending FlightAware ADS-B
Thu 06:16:04 PM 24.8280 -81.3270 173° South 488 562 39,500 -776 Descending FlightAware ADS-B
Thu 06:16:44 PM 24.7390 -81.3160 174° South 482 555 39,000 -988 Descending FlightAware ADS-B
Thu 06:17:29 PM 24.6300 -81.3010 173° South 483 556 38,100 -1,906 Descending FlightAware ADS-B
Thu 06:18:09 PM 24.5410 -81.2900 174° South 486 559 36,300 -2,800 Descending FlightAware ADS-B
Thu 06:18:44 PM 24.4600 -81.2790 173° South 486 559 34,600 -3,120 Descending FlightAware ADS-B
Thu 06:19:24 PM 24.3690 -81.2660 173° South 488 562 32,400 -2,686 Descending FlightAware ADS-B
Thu 06:20:29 PM 24.2320 -81.2480 173° South 484 557 29,900 -3,943 Descending FlightAware ADS-B
Thu 06:21:09 PM 24.1430 -81.2360 173° South 499 574 25,500 -3,750 Descending FlightAware ADS-B
Thu 06:21:49 PM 24.0550 -81.2230 172° South 483 556 24,900 -1,620 Descending FlightAware ADS-B
Thu 06:22:49 PM 23.9330 -81.2110 175° South 483 556 22,800 -1,260 Descending FlightAware ADS-B
Thu 06:23:29 PM 23.8580 -81.1990 172° South 483 556 22,800  Level FlightAware ADS-B
Thu 06:24:09 PM 23.7830 -81.1880 172° South 483 556 22,800  Level FlightAware ADS-B
Thu 06:24:49 PM 23.7070 -81.1760 172° South 483 556 22,800  Level FlightAware ADS-B
Thu 06:25:39 PM 23.6130 -81.1620 172° South 483 556 22,800  Level FlightAware ADS-B
Thu 06:30:00 PM 23.1167 -81.3000 190° South  Level FlightAware Approximate
Thu 06:31:00 PM 23.0519 -81.4066 190° South  Level Estimated
Thu 06:32:00 PM 23.0345 -81.4353 190° South  Level Estimated
Thu 06:33:00 PM 23.0344 -81.4353 190° South  Level Estimated
Thu 06:34:00 PM 23.0345 -81.4353 190° South  Level Estimated
Thu 06:35:00 PM 23.0344 -81.4353 190° South  Level Estimated
Thu 06:36:00 PM 23.0345 -81.4353 190° South  Level Estimated
Thu 06:37:00 PM 23.0344 -81.4353 190° South  Level Estimated
Thu 06:38:00 PM 23.0345 -81.4353 190° South  Level Estimated
Thu 06:39:00 PM 23.0344 -81.4353 190° South  Level Estimated
Thu 06:40:00 PM 23.0345 -81.4353 190° South  Level Estimated
Thu 06:41:00 PM 23.0344 -81.4353 190° South  Level Estimated
Thu 06:42:00 PM 23.0345 -81.4353 190° South  Level Estimated
Thu 06:43:00 PM 23.0344 -81.4353 190° South  Level Estimated
Thu 06:44:00 PM 23.0345 -81.4353 190° South  Level Estimated
Thu 06:45:00 PM 23.0344 -81.4353 190° South  Level Estimated
Thu 06:46:00 PM 23.0345 -81.4353 190° South  Level Estimated
Thu 06:47:00 PM 23.0344 -81.4353 190° South  Level Estimated
Thu 06:48:00 PM 23.0345 -81.4353 190° South  Level Estimated
Thu 06:49:00 PM 23.0344 -81.4353 190° South  Level Estimated
Thu 06:50:00 PM 23.0345 -81.4353 190° South  Level Estimated
Thu 06:51:00 PM 23.0344 -81.4353 190° South  Level Estimated
Thu 06:52:00 PM 23.0345 -81.4353 190° South  Level Estimated

Login

Don't have an account? Register now (free) for customized features, flight alerts, and more!